sensor_id;sensor_type;location;lat;lon;timestamp;pressure;altitude;pressure_sealevel;temperature;humidity
31403;BME280;18039;52.188;21.024;2022-09-09T00:04:00;76106.41;;;-141.45;86.34
31403;BME280;18039;52.188;21.024;2022-09-09T00:09:27;76130.75;;;-141.45;87.32
31403;BME280;18039;52.188;21.024;2022-09-09T00:12:01;76159.13;;;-141.45;87.93
31403;BME280;18039;52.188;21.024;2022-09-09T00:17:47;76146.97;;;-141.45;89.27
31403;BME280;18039;52.188;21.024;2022-09-09T00:20:21;76142.91;;;-141.45;88.93
31403;BME280;18039;52.188;21.024;2022-09-09T00:23:05;76140.88;;;-141.45;88.45
31403;BME280;18039;52.188;21.024;2022-09-09T00:26:09;76144.94;;;-141.45;88.75
31403;BME280;18039;52.188;21.024;2022-09-09T00:28:47;76138.84;;;-141.45;89.68
31403;BME280;18039;52.188;21.024;2022-09-09T00:31:20;76142.91;;;-141.45;89.79
31403;BME280;18039;52.188;21.024;2022-09-09T00:33:50;76155.06;;;-141.45;90.26
31403;BME280;18039;52.188;21.024;2022-09-09T00:36:22;76151.00;;;-141.45;90.16
31403;BME280;18039;52.188;21.024;2022-09-09T00:38:56;76142.91;;;-141.45;90.63
31403;BME280;18039;52.188;21.024;2022-09-09T00:44:33;76155.06;;;-141.45;91.89
31403;BME280;18039;52.188;21.024;2022-09-09T00:50:03;76159.13;;;-141.45;92.31
31403;BME280;18039;52.188;21.024;2022-09-09T00:52:39;76155.06;;;-141.45;92.77
31403;BME280;18039;52.188;21.024;2022-09-09T00:55:17;76157.09;;;-141.45;93.15
31403;BME280;18039;52.188;21.024;2022-09-09T00:57:51;76155.06;;;-141.45;93.84
31403;BME280;18039;52.188;21.024;2022-09-09T01:00:34;76155.06;;;-141.45;93.55
31403;BME280;18039;52.188;21.024;2022-09-09T01:03:14;76151.00;;;-141.45;93.78
31403;BME280;18039;52.188;21.024;2022-09-09T01:05:46;76146.97;;;-141.45;94.19
31403;BME280;18039;52.188;21.024;2022-09-09T01:10:56;76155.06;;;-141.45;93.90
31403;BME280;18039;52.188;21.024;2022-09-09T01:13:31;76149.00;;;-141.45;93.99
31403;BME280;18039;52.188;21.024;2022-09-09T01:16:06;76159.13;;;-141.45;94.30
31403;BME280;18039;52.188;21.024;2022-09-09T01:18:45;76155.06;;;-141.45;94.38
31403;BME280;18039;52.188;21.024;2022-09-09T01:21:30;76146.97;;;-141.45;94.30
31403;BME280;18039;52.188;21.024;2022-09-09T01:24:15;76142.91;;;-141.45;94.34
31403;BME280;18039;52.188;21.024;2022-09-09T01:27:05;76151.00;;;-141.45;94.66
31403;BME280;18039;52.188;21.024;2022-09-09T01:29:33;76142.91;;;-141.45;95.21
31403;BME280;18039;52.188;21.024;2022-09-09T01:32:35;76144.94;;;-141.45;95.44
31403;BME280;18039;52.188;21.024;2022-09-09T01:34:50;76142.91;;;-141.45;95.09
31403;BME280;18039;52.188;21.024;2022-09-09T01:37:19;76142.91;;;-141.45;95.39
31403;BME280;18039;52.188;21.024;2022-09-09T01:39:46;76142.91;;;-141.45;95.34
31403;BME280;18039;52.188;21.024;2022-09-09T01:42:16;76142.91;;;-141.45;95.31
31403;BME280;18039;52.188;21.024;2022-09-09T01:44:44;76140.88;;;-141.45;95.36
31403;BME280;18039;52.188;21.024;2022-09-09T01:47:11;76134.78;;;-141.45;95.43
31403;BME280;18039;52.188;21.024;2022-09-09T01:50:00;76142.91;;;-141.45;95.19
31403;BME280;18039;52.188;21.024;2022-09-09T01:52:30;76138.84;;;-141.45;95.35
31403;BME280;18039;52.188;21.024;2022-09-09T01:54:59;76138.84;;;-141.45;95.75
31403;BME280;18039;52.188;21.024;2022-09-09T02:00:08;76130.75;;;-141.45;95.85
31403;BME280;18039;52.188;21.024;2022-09-09T02:05:41;76122.63;;;-141.45;95.01
31403;BME280;18039;52.188;21.024;2022-09-09T02:08:48;76116.56;;;-141.45;95.15
31403;BME280;18039;52.188;21.024;2022-09-09T02:11:18;76114.53;;;-141.45;95.02
31403;BME280;18039;52.188;21.024;2022-09-09T02:14:18;76108.44;;;-141.45;94.81
31403;BME280;18039;52.188;21.024;2022-09-09T02:17:10;76110.47;;;-141.45;94.51
31403;BME280;18039;52.188;21.024;2022-09-09T02:20:03;76114.53;;;-141.45;95.38
31403;BME280;18039;52.188;21.024;2022-09-09T02:22:45;76122.63;;;-141.45;95.53
31403;BME280;18039;52.188;21.024;2022-09-09T02:25:21;76116.56;;;-141.45;95.61
31403;BME280;18039;52.188;21.024;2022-09-09T02:27:50;76114.53;;;-141.45;95.79
31403;BME280;18039;52.188;21.024;2022-09-09T02:30:19;76106.41;;;-141.45;95.81
31403;BME280;18039;52.188;21.024;2022-09-09T02:32:59;76102.38;;;-141.45;96.12
31403;BME280;18039;52.188;21.024;2022-09-09T02:35:43;76110.47;;;-141.45;96.41
31403;BME280;18039;52.188;21.024;2022-09-09T02:38:14;76118.59;;;-141.45;95.97
31403;BME280;18039;52.188;21.024;2022-09-09T02:40:54;76122.63;;;-141.45;95.59
31403;BME280;18039;52.188;21.024;2022-09-09T02:43:21;76122.63;;;-141.45;96.10
31403;BME280;18039;52.188;21.024;2022-09-09T02:52:06;76124.66;;;-141.45;96.47
31403;BME280;18039;52.188;21.024;2022-09-09T02:54:37;76142.91;;;-141.45;97.06
31403;BME280;18039;52.188;21.024;2022-09-09T02:57:28;76142.91;;;-141.45;97.06
31403;BME280;18039;52.188;21.024;2022-09-09T02:59:58;76134.78;;;-141.45;97.47
31403;BME280;18039;52.188;21.024;2022-09-09T03:02:25;76134.78;;;-141.45;97.70
31403;BME280;18039;52.188;21.024;2022-09-09T03:04:59;76134.78;;;-141.45;97.67
31403;BME280;18039;52.188;21.024;2022-09-09T03:07:26;76126.69;;;-141.45;97.41
31403;BME280;18039;52.188;21.024;2022-09-09T03:09:55;76126.69;;;-141.45;97.42
31403;BME280;18039;52.188;21.024;2022-09-09T03:12:25;76122.63;;;-141.45;97.40
31403;BME280;18039;52.188;21.024;2022-09-09T03:14:52;76128.72;;;-141.45;97.21
31403;BME280;18039;52.188;21.024;2022-09-09T03:17:19;76126.69;;;-141.45;97.46
31403;BME280;18039;52.188;21.024;2022-09-09T03:19:51;76122.63;;;-141.45;98.01
31403;BME280;18039;52.188;21.024;2022-09-09T03:22:21;76120.63;;;-141.45;97.95
31403;BME280;18039;52.188;21.024;2022-09-09T03:24:48;76114.53;;;-141.45;97.90
31403;BME280;18039;52.188;21.024;2022-09-09T03:27:15;76118.59;;;-141.45;97.76
31403;BME280;18039;52.188;21.024;2022-09-09T03:29:43;76118.59;;;-141.45;97.79
31403;BME280;18039;52.188;21.024;2022-09-09T03:32:17;76112.50;;;-141.45;97.73
31403;BME280;18039;52.188;21.024;2022-09-09T03:34:45;76118.59;;;-141.45;98.51
31403;BME280;18039;52.188;21.024;2022-09-09T03:37:16;76110.47;;;-141.45;98.44
31403;BME280;18039;52.188;21.024;2022-09-09T03:39:44;76118.59;;;-141.45;98.56
31403;BME280;18039;52.188;21.024;2022-09-09T03:42:13;76114.53;;;-141.45;98.84
31403;BME280;18039;52.188;21.024;2022-09-09T03:44:40;76126.69;;;-141.45;98.74
31403;BME280;18039;52.188;21.024;2022-09-09T03:47:08;76114.53;;;-141.45;98.87
31403;BME280;18039;52.188;21.024;2022-09-09T03:49:36;76122.63;;;-141.45;98.68
31403;BME280;18039;52.188;21.024;2022-09-09T03:52:04;76122.63;;;-141.45;98.79
31403;BME280;18039;52.188;21.024;2022-09-09T03:54:31;76118.59;;;-141.45;99.03
31403;BME280;18039;52.188;21.024;2022-09-09T03:56:58;76126.69;;;-141.45;99.21
31403;BME280;18039;52.188;21.024;2022-09-09T03:59:25;76126.69;;;-141.45;99.08
31403;BME280;18039;52.188;21.024;2022-09-09T04:01:53;76120.63;;;-141.45;99.20
31403;BME280;18039;52.188;21.024;2022-09-09T04:04:21;76126.69;;;-141.45;99.45
31403;BME280;18039;52.188;21.024;2022-09-09T04:06:48;76122.63;;;-141.45;99.59
31403;BME280;18039;52.188;21.024;2022-09-09T04:09:17;76120.63;;;-141.45;99.76
31403;BME280;18039;52.188;21.024;2022-09-09T04:11:45;76112.50;;;-141.45;100.00
31403;BME280;18039;52.188;21.024;2022-09-09T04:14:13;76114.53;;;-141.45;99.94
31403;BME280;18039;52.188;21.024;2022-09-09T04:16:40;76118.59;;;-141.45;99.83
31403;BME280;18039;52.188;21.024;2022-09-09T04:19:12;76110.47;;;-141.45;99.93
31403;BME280;18039;52.188;21.024;2022-09-09T04:21:42;76110.47;;;-141.45;99.85
31403;BME280;18039;52.188;21.024;2022-09-09T04:24:09;76110.47;;;-141.45;99.90
31403;BME280;18039;52.188;21.024;2022-09-09T04:26:37;76108.44;;;-141.45;99.87
31403;BME280;18039;52.188;21.024;2022-09-09T04:29:04;76104.41;;;-141.45;100.00
31403;BME280;18039;52.188;21.024;2022-09-09T04:31:31;76096.28;;;-141.45;100.00
31403;BME280;18039;52.188;21.024;2022-09-09T04:33:58;76094.25;;;-141.45;100.00
31403;BME280;18039;52.188;21.024;2022-09-09T04:36:29;76090.22;;;-141.45;100.00
31403;BME280;18039;52.188;21.024;2022-09-09T04:38:59;76092.25;;;-141.45;99.99
31403;BME280;18039;52.188;21.024;2022-09-09T04:41:28;76090.22;;;-141.45;100.00
31403;BME280;18039;52.188;21.024;2022-09-09T04:43:56;76084.13;;;-141.45;100.00
31403;BME280;18039;52.188;21.024;2022-09-09T04:46:23;76086.16;;;-141.45;100.00
31403;BME280;18039;52.188;21.024;2022-09-09T04:48:51;76090.22;;;-141.45;99.90
31403;BME280;18039;52.188;21.024;2022-09-09T04:51:21;76094.25;;;-141.45;99.82
31403;BME280;18039;52.188;21.024;2022-09-09T04:53:50;76090.22;;;-141.45;99.88
31403;BME280;18039;52.188;21.024;2022-09-09T04:56:18;76094.25;;;-141.45;99.75
31403;BME280;18039;52.188;21.024;2022-09-09T04:58:55;76088.19;;;-141.45;99.68
31403;BME280;18039;52.188;21.024;2022-09-09T05:01:29;76086.16;;;-141.45;99.66
31403;BME280;18039;52.188;21.024;2022-09-09T05:04:02;76086.16;;;-141.45;99.38
31403;BME280;18039;52.188;21.024;2022-09-09T05:06:32;76086.16;;;-141.45;99.46
31403;BME280;18039;52.188;21.024;2022-09-09T05:09:00;76086.16;;;-141.45;99.62
31403;BME280;18039;52.188;21.024;2022-09-09T05:11:31;76086.16;;;-141.45;99.42
31403;BME280;18039;52.188;21.024;2022-09-09T05:14:05;76094.25;;;-141.45;99.34
31403;BME280;18039;52.188;21.024;2022-09-09T05:16:32;76086.16;;;-141.45;99.28
31403;BME280;18039;52.188;21.024;2022-09-09T05:18:59;76082.09;;;-141.45;99.51
31403;BME280;18039;52.188;21.024;2022-09-09T05:21:35;76078.06;;;-141.45;99.63
31403;BME280;18039;52.188;21.024;2022-09-09T05:24:02;76078.06;;;-141.45;99.49
31403;BME280;18039;52.188;21.024;2022-09-09T05:26:29;76078.06;;;-141.45;99.59
31403;BME280;18039;52.188;21.024;2022-09-09T05:28:59;76078.06;;;-141.45;99.52
31403;BME280;18039;52.188;21.024;2022-09-09T05:31:29;76078.06;;;-141.45;99.52
31403;BME280;18039;52.188;21.024;2022-09-09T05:34:00;76078.06;;;-141.45;99.77
31403;BME280;18039;52.188;21.024;2022-09-09T05:36:26;76067.91;;;-141.45;99.96
31403;BME280;18039;52.188;21.024;2022-09-09T05:38:55;76074.00;;;-141.45;99.80
31403;BME280;18039;52.188;21.024;2022-09-09T05:41:24;76078.06;;;-141.45;99.74
31403;BME280;18039;52.188;21.024;2022-09-09T05:43:54;76067.91;;;-141.45;99.93
31403;BME280;18039;52.188;21.024;2022-09-09T05:46:23;76061.84;;;-141.45;100.00
31403;BME280;18039;52.188;21.024;2022-09-09T05:48:53;76057.78;;;-141.45;100.00
31403;BME280;18039;52.188;21.024;2022-09-09T05:51:29;76057.78;;;-141.45;99.86
31403;BME280;18039;52.188;21.024;2022-09-09T05:54:00;76057.78;;;-141.45;100.00
31403;BME280;18039;52.188;21.024;2022-09-09T05:56:31;76057.78;;;-141.45;99.88
31403;BME280;18039;52.188;21.024;2022-09-09T05:59:00;76078.06;;;-141.45;99.59
31403;BME280;18039;52.188;21.024;2022-09-09T06:01:30;76065.88;;;-141.45;99.99
31403;BME280;18039;52.188;21.024;2022-09-09T06:03:59;76071.97;;;-141.45;100.00
31403;BME280;18039;52.188;21.024;2022-09-09T06:06:31;76069.94;;;-141.45;100.00
31403;BME280;18039;52.188;21.024;2022-09-09T06:08:59;76065.88;;;-141.45;100.00
31403;BME280;18039;52.188;21.024;2022-09-09T06:11:33;76065.88;;;-141.45;100.00
31403;BME280;18039;52.188;21.024;2022-09-09T06:14:00;76053.72;;;-141.45;100.00
31403;BME280;18039;52.188;21.024;2022-09-09T06:16:29;76057.78;;;-141.45;100.00
31403;BME280;18039;52.188;21.024;2022-09-09T06:19:00;76053.72;;;-141.45;100.00
31403;BME280;18039;52.188;21.024;2022-09-09T06:21:31;76053.72;;;-141.45;100.00
31403;BME280;18039;52.188;21.024;2022-09-09T06:24:00;76049.69;;;-141.45;100.00
31403;BME280;18039;52.188;21.024;2022-09-09T06:26:33;76051.69;;;-141.45;100.00
31403;BME280;18039;52.188;21.024;2022-09-09T06:29:03;76049.69;;;-141.45;100.00
31403;BME280;18039;52.188;21.024;2022-09-09T06:31:33;76055.75;;;-141.45;100.00
31403;BME280;18039;52.188;21.024;2022-09-09T06:34:11;76057.78;;;-141.45;100.00
31403;BME280;18039;52.188;21.024;2022-09-09T06:36:40;76061.84;;;-141.45;99.90
31403;BME280;18039;52.188;21.024;2022-09-09T06:39:08;76069.94;;;-141.45;99.95
31403;BME280;18039;52.188;21.024;2022-09-09T06:41:41;76065.88;;;-141.45;99.96
31403;BME280;18039;52.188;21.024;2022-09-09T06:44:28;76065.88;;;-141.45;100.00
31403;BME280;18039;52.188;21.024;2022-09-09T06:47:02;76057.78;;;-141.45;100.00
31403;BME280;18039;52.188;21.024;2022-09-09T06:49:31;76061.84;;;-141.45;100.00
31403;BME280;18039;52.188;21.024;2022-09-09T06:51:59;76061.84;;;-141.45;100.00
31403;BME280;18039;52.188;21.024;2022-09-09T06:54:28;76061.84;;;-141.45;100.00
31403;BME280;18039;52.188;21.024;2022-09-09T06:56:55;76057.78;;;-141.45;100.00
31403;BME280;18039;52.188;21.024;2022-09-09T06:59:23;76061.84;;;-141.45;100.00
31403;BME280;18039;52.188;21.024;2022-09-09T07:01:53;76067.91;;;-141.45;100.00
31403;BME280;18039;52.188;21.024;2022-09-09T07:04:23;76067.91;;;-141.45;100.00
31403;BME280;18039;52.188;21.024;2022-09-09T07:06:50;76065.88;;;-141.45;100.00
31403;BME280;18039;52.188;21.024;2022-09-09T07:09:24;76074.00;;;-141.45;100.00
31403;BME280;18039;52.188;21.024;2022-09-09T07:11:53;76065.88;;;-141.45;100.00
31403;BME280;18039;52.188;21.024;2022-09-09T07:14:23;76071.97;;;-141.45;100.00
31403;BME280;18039;52.188;21.024;2022-09-09T07:16:57;76074.00;;;-141.45;100.00
31403;BME280;18039;52.188;21.024;2022-09-09T07:19:28;76069.94;;;-141.45;100.00
31403;BME280;18039;52.188;21.024;2022-09-09T07:21:56;76065.88;;;-141.45;100.00
31403;BME280;18039;52.188;21.024;2022-09-09T07:24:24;76061.84;;;-141.45;100.00
31403;BME280;18039;52.188;21.024;2022-09-09T07:26:51;76057.78;;;-141.45;100.00
31403;BME280;18039;52.188;21.024;2022-09-09T07:29:19;76057.78;;;-141.45;100.00
31403;BME280;18039;52.188;21.024;2022-09-09T07:31:49;76051.69;;;-141.45;100.00
31403;BME280;18039;52.188;21.024;2022-09-09T07:34:24;76053.72;;;-141.45;100.00
31403;BME280;18039;52.188;21.024;2022-09-09T07:36:51;76059.81;;;-141.45;100.00
31403;BME280;18039;52.188;21.024;2022-09-09T07:39:18;76053.72;;;-141.45;100.00
31403;BME280;18039;52.188;21.024;2022-09-09T07:41:49;76053.72;;;-141.45;100.00
31403;BME280;18039;52.188;21.024;2022-09-09T07:44:23;76061.84;;;-141.45;100.00
31403;BME280;18039;52.188;21.024;2022-09-09T07:47:08;76059.81;;;-141.45;100.00
31403;BME280;18039;52.188;21.024;2022-09-09T07:49:42;76074.00;;;-141.45;100.00
31403;BME280;18039;52.188;21.024;2022-09-09T07:52:10;76051.69;;;-141.45;100.00
31403;BME280;18039;52.188;21.024;2022-09-09T07:54:45;76063.88;;;-141.45;100.00
31403;BME280;18039;52.188;21.024;2022-09-09T07:57:13;76061.84;;;-141.45;100.00
31403;BME280;18039;52.188;21.024;2022-09-09T07:59:40;76053.72;;;-141.45;100.00
31403;BME280;18039;52.188;21.024;2022-09-09T08:02:08;76045.63;;;-141.45;100.00
31403;BME280;18039;52.188;21.024;2022-09-09T08:04:36;76045.63;;;-141.45;100.00
31403;BME280;18039;52.188;21.024;2022-09-09T08:07:03;76057.78;;;-141.45;100.00
31403;BME280;18039;52.188;21.024;2022-09-09T08:09:37;76057.78;;;-141.45;100.00
31403;BME280;18039;52.188;21.024;2022-09-09T08:12:10;76053.72;;;-141.45;100.00
31403;BME280;18039;52.188;21.024;2022-09-09T08:14:38;76059.81;;;-141.45;100.00
31403;BME280;18039;52.188;21.024;2022-09-09T08:17:05;76061.84;;;-141.45;100.00
31403;BME280;18039;52.188;21.024;2022-09-09T08:19:33;76053.72;;;-141.45;100.00
31403;BME280;18039;52.188;21.024;2022-09-09T08:22:06;76069.94;;;-141.45;100.00
31403;BME280;18039;52.188;21.024;2022-09-09T08:24:36;76065.88;;;-141.45;100.00
31403;BME280;18039;52.188;21.024;2022-09-09T08:27:03;76057.78;;;-141.45;100.00
31403;BME280;18039;52.188;21.024;2022-09-09T08:29:30;76057.78;;;-141.45;100.00
31403;BME280;18039;52.188;21.024;2022-09-09T08:31:57;76055.75;;;-141.45;100.00
31403;BME280;18039;52.188;21.024;2022-09-09T08:34:26;76043.59;;;-141.45;100.00
31403;BME280;18039;52.188;21.024;2022-09-09T08:36:56;76033.47;;;-141.45;100.00
31403;BME280;18039;52.188;21.024;2022-09-09T08:39:29;76029.41;;;-141.45;100.00
31403;BME280;18039;52.188;21.024;2022-09-09T08:42:08;76041.56;;;-141.45;100.00
31403;BME280;18039;52.188;21.024;2022-09-09T08:44:48;76041.56;;;-141.45;99.90
31403;BME280;18039;52.188;21.024;2022-09-09T08:50:35;76037.50;;;-141.45;100.00
31403;BME280;18039;52.188;21.024;2022-09-09T08:53:24;76025.34;;;-141.45;100.00
31403;BME280;18039;52.188;21.024;2022-09-09T08:55:56;76035.47;;;-141.45;100.00
31403;BME280;18039;52.188;21.024;2022-09-09T08:58:46;76029.41;;;-141.45;100.00
31403;BME280;18039;52.188;21.024;2022-09-09T09:01:25;76021.31;;;-141.45;100.00
31403;BME280;18039;52.188;21.024;2022-09-09T09:12:23;76005.09;;;-141.45;100.00
31403;BME280;18039;52.188;21.024;2022-09-09T09:14:54;75999.00;;;-141.45;100.00
31403;BME280;18039;52.188;21.024;2022-09-09T09:17:28;75999.00;;;-141.45;99.69
31403;BME280;18039;52.188;21.024;2022-09-09T09:19:59;76001.03;;;-141.45;99.42
31403;BME280;18039;52.188;21.024;2022-09-09T09:22:39;76013.19;;;-141.45;99.17
31403;BME280;18039;52.188;21.024;2022-09-09T09:27:59;76011.16;;;-141.45;99.56
31403;BME280;18039;52.188;21.024;2022-09-09T09:30:42;76013.19;;;-141.45;99.60
31403;BME280;18039;52.188;21.024;2022-09-09T09:35:52;76005.09;;;-141.45;99.36
31403;BME280;18039;52.188;21.024;2022-09-09T09:38:24;75996.97;;;-141.45;99.40
31403;BME280;18039;52.188;21.024;2022-09-09T09:41:11;75996.97;;;-141.45;99.35
31403;BME280;18039;52.188;21.024;2022-09-09T09:43:40;75990.91;;;-141.45;99.36
31403;BME280;18039;52.188;21.024;2022-09-09T09:46:22;75988.88;;;-141.45;98.82
31403;BME280;18039;52.188;21.024;2022-09-09T09:49:04;76005.09;;;-141.45;98.51
31403;BME280;18039;52.188;21.024;2022-09-09T09:51:33;75996.97;;;-141.45;98.99
31403;BME280;18039;52.188;21.024;2022-09-09T09:54:31;75992.94;;;-141.45;98.85
31403;BME280;18039;52.188;21.024;2022-09-09T09:57:10;75984.81;;;-141.45;98.47
31403;BME280;18039;52.188;21.024;2022-09-09T09:59:39;75984.81;;;-141.45;98.87
31403;BME280;18039;52.188;21.024;2022-09-09T10:02:22;75972.66;;;-141.45;98.76
31403;BME280;18039;52.188;21.024;2022-09-09T10:05:03;75972.66;;;-141.45;98.08
31403;BME280;18039;52.188;21.024;2022-09-09T10:07:32;75972.66;;;-141.45;97.76
31403;BME280;18039;52.188;21.024;2022-09-09T10:09:59;75972.66;;;-141.45;97.78
31403;BME280;18039;52.188;21.024;2022-09-09T10:12:59;75972.66;;;-141.45;98.08
31403;BME280;18039;52.188;21.024;2022-09-09T10:15:41;75980.75;;;-141.45;98.03
31403;BME280;18039;52.188;21.024;2022-09-09T10:18:43;76001.03;;;-141.45;98.16
31403;BME280;18039;52.188;21.024;2022-09-09T10:21:28;75988.88;;;-141.45;98.82
31403;BME280;18039;52.188;21.024;2022-09-09T10:30:05;75992.94;;;-141.45;98.05
31403;BME280;18039;52.188;21.024;2022-09-09T10:32:40;75996.97;;;-141.45;97.79
31403;BME280;18039;52.188;21.024;2022-09-09T10:40:33;75988.88;;;-141.45;98.42
31403;BME280;18039;52.188;21.024;2022-09-09T10:43:12;75992.94;;;-141.45;98.00
31403;BME280;18039;52.188;21.024;2022-09-09T10:48:30;75996.97;;;-141.45;98.17
31403;BME280;18039;52.188;21.024;2022-09-09T10:53:49;75996.97;;;-141.45;97.67
31403;BME280;18039;52.188;21.024;2022-09-09T10:56:21;75994.94;;;-141.45;98.00
31403;BME280;18039;52.188;21.024;2022-09-09T10:58:58;75992.94;;;-141.45;97.27
31403;BME280;18039;52.188;21.024;2022-09-09T11:01:37;76011.16;;;-141.45;97.12
31403;BME280;18039;52.188;21.024;2022-09-09T11:07:05;76025.34;;;-141.45;97.64
31403;BME280;18039;52.188;21.024;2022-09-09T11:10:03;76021.31;;;-141.45;98.26
31403;BME280;18039;52.188;21.024;2022-09-09T11:12:34;76021.31;;;-141.45;98.33
31403;BME280;18039;52.188;21.024;2022-09-09T11:15:06;76021.31;;;-141.45;98.40
31403;BME280;18039;52.188;21.024;2022-09-09T11:17:40;76009.13;;;-141.45;98.61
31403;BME280;18039;52.188;21.024;2022-09-09T11:20:14;76013.19;;;-141.45;98.22
31403;BME280;18039;52.188;21.024;2022-09-09T11:22:51;76007.13;;;-141.45;98.44
31403;BME280;18039;52.188;21.024;2022-09-09T11:25:24;76007.13;;;-141.45;98.37
31403;BME280;18039;52.188;21.024;2022-09-09T11:28:32;75992.94;;;-141.45;98.57
31403;BME280;18039;52.188;21.024;2022-09-09T11:39:47;76021.31;;;-141.45;98.17
31403;BME280;18039;52.188;21.024;2022-09-09T11:42:20;76021.31;;;-141.45;98.44
31403;BME280;18039;52.188;21.024;2022-09-09T11:44:48;76001.03;;;-141.45;98.95
31403;BME280;18039;52.188;21.024;2022-09-09T11:47:30;75994.94;;;-141.45;98.60
31403;BME280;18039;52.188;21.024;2022-09-09T11:50:08;75980.75;;;-141.45;98.48
31403;BME280;18039;52.188;21.024;2022-09-09T11:52:43;75976.72;;;-141.45;98.27
31403;BME280;18039;52.188;21.024;2022-09-09T11:55:30;75980.75;;;-141.45;98.44
31403;BME280;18039;52.188;21.024;2022-09-09T11:58:01;75976.72;;;-141.45;98.51
31403;BME280;18039;52.188;21.024;2022-09-09T12:00:46;75970.63;;;-141.45;98.11
31403;BME280;18039;52.188;21.024;2022-09-09T12:06:30;75964.56;;;-141.45;98.03
31403;BME280;18039;52.188;21.024;2022-09-09T12:09:15;75962.53;;;-141.45;97.91
31403;BME280;18039;52.188;21.024;2022-09-09T12:11:44;75968.59;;;-141.45;97.54
31403;BME280;18039;52.188;21.024;2022-09-09T12:17:19;75990.91;;;-141.45;97.95
31403;BME280;18039;52.188;21.024;2022-09-09T12:19:48;75988.88;;;-141.45;98.43
31403;BME280;18039;52.188;21.024;2022-09-09T12:22:35;75980.75;;;-141.45;98.24
31403;BME280;18039;52.188;21.024;2022-09-09T12:28:04;75996.97;;;-141.45;98.17
31403;BME280;18039;52.188;21.024;2022-09-09T12:33:37;75988.88;;;-141.45;98.68
31403;BME280;18039;52.188;21.024;2022-09-09T12:36:06;75984.81;;;-141.45;98.63
31403;BME280;18039;52.188;21.024;2022-09-09T12:38:38;75976.72;;;-141.45;98.54
31403;BME280;18039;52.188;21.024;2022-09-09T12:41:06;75980.75;;;-141.45;98.43
31403;BME280;18039;52.188;21.024;2022-09-09T12:43:33;75976.72;;;-141.45;98.84
31403;BME280;18039;52.188;21.024;2022-09-09T12:46:03;75952.38;;;-141.45;98.74
31403;BME280;18039;52.188;21.024;2022-09-09T12:48:38;75948.34;;;-141.45;98.73
31403;BME280;18039;52.188;21.024;2022-09-09T12:51:27;75932.13;;;-141.45;98.07
31403;BME280;18039;52.188;21.024;2022-09-09T12:53:55;75924.00;;;-141.45;97.90
31403;BME280;18039;52.188;21.024;2022-09-09T12:56:29;75928.06;;;-141.45;97.29
31403;BME280;18039;52.188;21.024;2022-09-09T12:58:58;75924.00;;;-141.45;97.46
31403;BME280;18039;52.188;21.024;2022-09-09T13:01:30;75919.97;;;-141.45;97.64
31403;BME280;18039;52.188;21.024;2022-09-09T13:03:58;75924.00;;;-141.45;97.35
31403;BME280;18039;52.188;21.024;2022-09-09T13:06:27;75932.13;;;-141.45;96.93
31403;BME280;18039;52.188;21.024;2022-09-09T13:09:00;75948.34;;;-141.45;97.00
31403;BME280;18039;52.188;21.024;2022-09-09T13:13:58;75960.50;;;-141.45;97.78
31403;BME280;18039;52.188;21.024;2022-09-09T13:16:28;75962.53;;;-141.45;98.12
31403;BME280;18039;52.188;21.024;2022-09-09T13:19:07;75952.38;;;-141.45;98.10
31403;BME280;18039;52.188;21.024;2022-09-09T13:21:37;75948.34;;;-141.45;98.10
31403;BME280;18039;52.188;21.024;2022-09-09T13:24:27;75944.28;;;-141.45;98.12
31403;BME280;18039;52.188;21.024;2022-09-09T13:27:35;75956.44;;;-141.45;97.98
31403;BME280;18039;52.188;21.024;2022-09-09T13:30:21;75954.41;;;-141.45;98.09
31403;BME280;18039;52.188;21.024;2022-09-09T13:35:56;75950.38;;;-141.45;98.60
31403;BME280;18039;52.188;21.024;2022-09-09T13:38:24;75948.34;;;-141.45;98.42
31403;BME280;18039;52.188;21.024;2022-09-09T13:40:54;75960.50;;;-141.45;98.33
31403;BME280;18039;52.188;21.024;2022-09-09T13:43:24;75966.56;;;-141.45;98.34
31403;BME280;18039;52.188;21.024;2022-09-09T13:45:59;75970.63;;;-141.45;98.63
31403;BME280;18039;52.188;21.024;2022-09-09T13:48:28;75976.72;;;-141.45;98.70
31403;BME280;18039;52.188;21.024;2022-09-09T13:51:28;75982.78;;;-141.45;99.16
31403;BME280;18039;52.188;21.024;2022-09-09T13:53:57;75988.88;;;-141.45;99.32
31403;BME280;18039;52.188;21.024;2022-09-09T13:56:24;75990.91;;;-141.45;99.22
31403;BME280;18039;52.188;21.024;2022-09-09T13:58:51;75992.94;;;-141.45;99.15
31403;BME280;18039;52.188;21.024;2022-09-09T14:01:18;75992.94;;;-141.45;99.52
31403;BME280;18039;52.188;21.024;2022-09-09T14:03:45;76001.03;;;-141.45;99.63
31403;BME280;18039;52.188;21.024;2022-09-09T14:06:12;75999.00;;;-141.45;99.80
31403;BME280;18039;52.188;21.024;2022-09-09T14:08:40;76005.09;;;-141.45;100.00
31403;BME280;18039;52.188;21.024;2022-09-09T14:11:11;76001.03;;;-141.45;100.00
31403;BME280;18039;52.188;21.024;2022-09-09T14:13:39;76009.13;;;-141.45;100.00
31403;BME280;18039;52.188;21.024;2022-09-09T14:16:06;76005.09;;;-141.45;100.00
31403;BME280;18039;52.188;21.024;2022-09-09T14:18:33;76001.03;;;-141.45;100.00
31403;BME280;18039;52.188;21.024;2022-09-09T14:21:00;76007.13;;;-141.45;99.97
31403;BME280;18039;52.188;21.024;2022-09-09T14:23:30;76001.03;;;-141.45;100.00
31403;BME280;18039;52.188;21.024;2022-09-09T14:25:57;75994.94;;;-141.45;100.00
31403;BME280;18039;52.188;21.024;2022-09-09T14:28:24;76001.03;;;-141.45;100.00
31403;BME280;18039;52.188;21.024;2022-09-09T14:31:12;76009.13;;;-141.45;99.97